Time;durP1;ratioP1;P1;durP2;ratioP2;P2;SDS_P1;SDS_P2;PMS_P1;PMS_P2;Temp;Humidity;BMP_temperature;BMP_pressure;BME280_temperature;BME280_humidity;BME280_pressure;Samples;Min_cycle;Max_cycle;Signal;HPM_P1;HPM_P2
2023/01/30 00:03:19;;;;;;;10.63;5.10;;;1.00;99.90;;;;;;10079430;28;20394;-67
2023/01/30 00:08:10;;;;;;;11.98;5.18;;;0.90;99.90;;;;;;10105175;28;20239;-68
2023/01/30 00:13:00;;;;;;;12.35;5.72;;;0.90;99.90;;;;;;10104674;28;20115;-70
2023/01/30 00:17:51;;;;;;;11.15;5.78;;;0.90;99.90;;;;;;10104630;28;20025;-70
2023/01/30 00:22:42;;;;;;;9.43;5.00;;;0.90;99.90;;;;;;10070731;28;20037;-67
2023/01/30 00:27:32;;;;;;;12.20;5.13;;;0.90;99.90;;;;;;10064219;28;20352;-69
2023/01/30 00:32:25;;;;;;;11.05;4.93;;;0.90;99.90;;;;;;10083169;28;20045;-71
2023/01/30 00:37:15;;;;;;;8.68;5.15;;;0.80;99.90;;;;;;10103938;28;20033;-69
2023/01/30 00:47:17;;;;;;;16.25;6.85;;;0.70;99.90;;;;;;10108712;28;20168;-70
2023/01/30 00:52:07;;;;;;;10.77;4.93;;;0.70;99.90;;;;;;10102794;28;20184;-70
2023/01/30 00:56:58;;;;;;;11.13;6.53;;;0.80;99.90;;;;;;10067407;28;20116;-70
2023/01/30 01:01:49;;;;;;;10.13;5.47;;;0.80;99.90;;;;;;10072983;28;20467;-69
2023/01/30 01:06:39;;;;;;;12.30;6.05;;;0.80;99.90;;;;;;10082172;28;20289;-70
2023/01/30 01:11:30;;;;;;;15.70;6.82;;;0.90;99.90;;;;;;10102008;28;20120;-70
2023/01/30 01:16:22;;;;;;;9.88;5.28;;;0.90;99.90;;;;;;10102581;28;20029;-68
2023/01/30 01:21:12;;;;;;;9.75;4.95;;;0.90;99.90;;;;;;10102232;28;20029;-69
2023/01/30 01:26:03;;;;;;;10.95;4.90;;;0.90;99.90;;;;;;10103660;28;20557;-68
2023/01/30 01:30:54;;;;;;;11.73;6.22;;;0.90;99.90;;;;;;10102223;28;20068;-69
2023/01/30 01:35:46;;;;;;;11.20;5.10;;;0.90;99.90;;;;;;10101991;28;20028;-70
2023/01/30 01:45:50;;;;;;;11.60;5.22;;;1.00;99.90;;;;;;10101717;28;20040;-70
2023/01/30 01:50:56;;;;;;;11.57;5.15;;;1.00;99.90;;;;;;10096046;28;20045;-70
2023/01/30 01:55:50;;;;;;;12.93;5.40;;;1.00;99.90;;;;;;10089435;28;20029;-68
2023/01/30 02:00:40;;;;;;;10.18;5.32;;;0.90;99.90;;;;;;10061073;28;20029;-68
2023/01/30 02:05:39;;;;;;;9.27;4.55;;;0.90;99.90;;;;;;10092175;28;20499;-71
2023/01/30 02:10:51;;;;;;;10.50;4.70;;;0.90;99.90;;;;;;10100504;28;20039;-68
2023/01/30 02:15:42;;;;;;;9.95;5.90;;;0.90;99.90;;;;;;10083754;28;20427;-69
2023/01/30 02:20:56;;;;;;;13.98;6.18;;;0.80;99.90;;;;;;10101272;28;20037;-67
2023/01/30 02:26:25;;;;;;;13.00;4.70;;;0.80;99.90;;;;;;10101489;28;20396;-69
2023/01/30 02:31:46;;;;;;;10.10;4.80;;;0.70;99.90;;;;;;10069997;28;20056;-70
2023/01/30 02:37:19;;;;;;;7.28;4.25;;;0.70;99.90;;;;;;10079015;28;20045;-68
2023/01/30 02:42:37;;;;;;;10.27;4.50;;;0.80;99.90;;;;;;9997793;28;20393;-70
2023/01/30 02:47:35;;;;;;;9.23;4.20;;;0.90;99.90;;;;;;10086042;28;20052;-70
2023/01/30 02:52:27;;;;;;;7.95;4.10;;;1.00;99.90;;;;;;10111820;28;20053;-69
2023/01/30 02:57:23;;;;;;;9.93;3.75;;;1.10;99.90;;;;;;10093739;28;20398;-68
2023/01/30 03:02:45;;;;;;;8.40;4.05;;;1.20;99.90;;;;;;10097878;28;20029;-70
2023/01/30 03:07:48;;;;;;;9.00;3.63;;;1.10;99.90;;;;;;10100074;28;20045;-68
2023/01/30 03:12:56;;;;;;;8.18;4.28;;;1.10;99.90;;;;;;10080948;28;20044;-68
2023/01/30 03:17:47;;;;;;;8.55;4.35;;;1.20;99.90;;;;;;10099381;28;20473;-67
2023/01/30 03:22:37;;;;;;;11.48;5.20;;;1.00;99.90;;;;;;10098973;28;20277;-70
2023/01/30 03:27:29;;;;;;;13.23;7.13;;;0.90;99.90;;;;;;10099043;28;20029;-68
2023/01/30 03:32:19;;;;;;;12.50;4.20;;;1.00;99.90;;;;;;10103551;28;20045;-69
2023/01/30 03:37:10;;;;;;;11.65;5.05;;;1.00;99.90;;;;;;10106926;28;20021;-68
2023/01/30 03:42:01;;;;;;;10.73;4.43;;;1.00;99.90;;;;;;10085859;28;20034;-69
2023/01/30 03:46:51;;;;;;;8.93;4.03;;;1.10;99.90;;;;;;10086247;28;20320;-68
2023/01/30 03:51:42;;;;;;;10.70;3.88;;;1.20;99.90;;;;;;10116352;28;20060;-67
2023/01/30 03:56:32;;;;;;;8.40;3.65;;;1.20;99.90;;;;;;10086899;28;20027;-69
2023/01/30 04:01:23;;;;;;;8.57;4.38;;;1.20;99.90;;;;;;10064967;28;20039;-67
2023/01/30 04:06:14;;;;;;;9.07;4.32;;;1.20;99.90;;;;;;10102736;28;20052;-66
2023/01/30 04:11:04;;;;;;;8.77;3.97;;;1.40;99.90;;;;;;10094839;28;20124;-68
2023/01/30 04:16:16;;;;;;;10.55;4.97;;;1.40;99.90;;;;;;10104623;28;20514;-69
2023/01/30 04:21:06;;;;;;;10.25;3.85;;;1.50;99.90;;;;;;10089278;28;20037;-68
2023/01/30 04:25:57;;;;;;;8.60;4.25;;;1.50;99.90;;;;;;10104362;28;20074;-68
2023/01/30 04:30:47;;;;;;;8.10;3.25;;;1.60;99.90;;;;;;10104304;28;20145;-69
2023/01/30 04:35:38;;;;;;;8.10;3.58;;;1.60;99.90;;;;;;10104067;28;20029;-69
2023/01/30 04:40:29;;;;;;;7.22;3.75;;;1.60;99.90;;;;;;10070906;28;20029;-68
2023/01/30 04:45:19;;;;;;;10.85;3.95;;;1.60;99.90;;;;;;10069305;28;20017;-68
2023/01/30 04:50:10;;;;;;;7.93;4.03;;;1.60;99.90;;;;;;10108479;28;20068;-70
2023/01/30 04:55:01;;;;;;;7.57;3.45;;;1.60;99.90;;;;;;10083473;28;20037;-69
2023/01/30 04:59:51;;;;;;;7.95;3.58;;;1.60;99.90;;;;;;10063539;28;20032;-67
2023/01/30 05:04:42;;;;;;;8.88;3.80;;;1.60;99.90;;;;;;10088026;28;20024;-70
2023/01/30 05:09:32;;;;;;;7.68;3.53;;;1.50;99.90;;;;;;10102922;28;20021;-68
2023/01/30 05:14:23;;;;;;;8.43;3.85;;;1.40;99.90;;;;;;10102420;28;20385;-65
2023/01/30 05:19:14;;;;;;;7.47;4.28;;;1.40;99.90;;;;;;10102606;28;20044;-68
2023/01/30 05:24:05;;;;;;;11.85;4.75;;;1.40;99.90;;;;;;10066081;28;20391;-67
2023/01/30 05:28:56;;;;;;;10.05;4.50;;;1.30;99.90;;;;;;10101020;28;20102;-65
2023/01/30 05:33:49;;;;;;;7.22;3.45;;;1.30;99.90;;;;;;10101563;28;20059;-66
2023/01/30 05:38:42;;;;;;;10.70;4.38;;;1.20;99.90;;;;;;10101633;28;20268;-67
2023/01/30 05:43:34;;;;;;;11.27;4.15;;;1.30;99.90;;;;;;10083302;28;20444;-68
2023/01/30 05:48:25;;;;;;;8.95;4.30;;;1.30;99.90;;;;;;10102931;28;20028;-70
2023/01/30 05:53:16;;;;;;;9.52;4.22;;;1.40;99.90;;;;;;10112979;28;20076;-70
2023/01/30 05:58:07;;;;;;;10.60;4.88;;;1.40;99.90;;;;;;10070858;28;20025;-68
2023/01/30 06:02:57;;;;;;;11.05;3.95;;;1.40;99.90;;;;;;10072849;28;20032;-67
2023/01/30 06:07:48;;;;;;;9.10;4.50;;;1.40;99.90;;;;;;10097005;28;20503;-68
2023/01/30 06:12:39;;;;;;;9.75;4.20;;;1.40;99.90;;;;;;10092115;28;20029;-69
2023/01/30 06:17:29;;;;;;;7.75;3.55;;;1.30;99.90;;;;;;10097148;28;20307;-71
2023/01/30 06:22:20;;;;;;;8.63;4.20;;;1.30;99.90;;;;;;10089752;28;20116;-67
2023/01/30 06:27:10;;;;;;;9.00;3.92;;;1.30;99.90;;;;;;10100233;28;20479;-68
2023/01/30 06:32:01;;;;;;;8.18;3.85;;;1.20;99.90;;;;;;10069763;28;20033;-67
2023/01/30 06:36:52;;;;;;;7.65;3.55;;;1.30;99.90;;;;;;10096212;28;20025;-69
2023/01/30 06:41:43;;;;;;;6.20;2.97;;;1.20;99.90;;;;;;10099521;28;20020;-70
2023/01/30 06:46:33;;;;;;;8.50;4.63;;;1.20;99.90;;;;;;10102237;28;20162;-68
2023/01/30 06:51:26;;;;;;;10.15;5.22;;;1.20;99.90;;;;;;10111412;28;20399;-66
2023/01/30 06:56:16;;;;;;;8.82;3.97;;;1.10;99.90;;;;;;10083511;28;20030;-70
2023/01/30 07:01:07;;;;;;;10.10;4.25;;;1.10;99.90;;;;;;10086124;28;20427;-71
2023/01/30 07:05:58;;;;;;;9.32;3.85;;;1.10;99.90;;;;;;10095336;28;20028;-70
2023/01/30 07:10:48;;;;;;;9.45;3.90;;;1.10;99.90;;;;;;10100414;28;20025;-69
2023/01/30 07:15:39;;;;;;;11.18;4.13;;;1.10;99.90;;;;;;10071050;28;20043;-68
2023/01/30 07:20:30;;;;;;;6.45;3.55;;;1.20;99.90;;;;;;10091717;28;20369;-66
2023/01/30 07:25:22;;;;;;;10.68;4.25;;;1.30;99.90;;;;;;10096591;28;20395;-71
2023/01/30 07:30:13;;;;;;;10.57;3.92;;;1.30;99.90;;;;;;10059989;28;20049;-70
2023/01/30 07:35:04;;;;;;;9.88;4.28;;;1.40;99.90;;;;;;10087702;28;20095;-69
2023/01/30 07:39:55;;;;;;;10.35;4.63;;;1.30;99.90;;;;;;10080410;28;20017;-72
2023/01/30 07:44:45;;;;;;;10.57;4.57;;;1.40;99.90;;;;;;10080885;28;20476;-74
2023/01/30 07:49:36;;;;;;;11.80;6.10;;;1.50;99.90;;;;;;10099179;28;20041;-67
2023/01/30 07:54:26;;;;;;;9.52;4.38;;;1.60;99.90;;;;;;10107788;28;20044;-69
2023/01/30 07:59:17;;;;;;;10.48;3.88;;;1.50;99.90;;;;;;10057533;28;20041;-68
2023/01/30 08:04:08;;;;;;;11.18;4.40;;;1.60;99.90;;;;;;10062894;28;20121;-64
2023/01/30 08:08:58;;;;;;;9.57;4.38;;;1.60;99.90;;;;;;10079502;28;20079;-68
2023/01/30 08:13:49;;;;;;;9.52;4.18;;;1.60;99.90;;;;;;10081123;28;20118;-69
2023/01/30 08:18:39;;;;;;;9.85;4.18;;;1.80;99.90;;;;;;10065771;28;20435;-68
2023/01/30 08:23:31;;;;;;;6.25;3.67;;;1.80;99.90;;;;;;10073765;28;20029;-64
2023/01/30 08:28:23;;;;;;;8.32;5.05;;;1.80;99.90;;;;;;10073045;28;20469;-66
2023/01/30 08:33:17;;;;;;;12.25;4.43;;;1.80;99.90;;;;;;10076544;28;20060;-66
2023/01/30 08:38:10;;;;;;;9.45;4.10;;;1.80;99.90;;;;;;10088567;28;20518;-68
2023/01/30 08:43:01;;;;;;;9.55;4.63;;;1.90;99.90;;;;;;10075925;28;20588;-63
2023/01/30 08:47:51;;;;;;;9.27;4.53;;;2.00;99.90;;;;;;10087455;28;20083;-63
2023/01/30 08:52:42;;;;;;;9.38;4.30;;;2.00;99.90;;;;;;10099003;28;20520;-62
2023/01/30 08:57:33;;;;;;;8.52;4.20;;;2.10;99.90;;;;;;10091984;28;20567;-62
2023/01/30 09:02:23;;;;;;;8.35;4.78;;;2.20;99.90;;;;;;10074768;28;20033;-63
2023/01/30 09:07:14;;;;;;;9.50;3.78;;;2.30;99.90;;;;;;10100837;28;20383;-62
2023/01/30 09:12:05;;;;;;;11.05;4.65;;;2.50;99.90;;;;;;10080705;28;20411;-68
2023/01/30 09:16:55;;;;;;;8.73;4.68;;;2.80;99.90;;;;;;10088847;28;20037;-68
2023/01/30 09:21:48;;;;;;;10.15;4.72;;;2.80;99.90;;;;;;10100348;28;20036;-70
2023/01/30 09:26:43;;;;;;;10.27;4.50;;;2.80;99.90;;;;;;10092925;28;20029;-67
2023/01/30 09:31:34;;;;;;;9.88;4.65;;;2.80;99.90;;;;;;10081033;28;20064;-67
2023/01/30 09:36:24;;;;;;;9.50;4.50;;;2.70;99.90;;;;;;10099571;28;20024;-68
2023/01/30 09:41:15;;;;;;;12.32;4.60;;;2.80;99.90;;;;;;10080856;28;20085;-67
2023/01/30 09:46:20;;;;;;;7.75;4.03;;;2.90;99.90;;;;;;10087525;28;20033;-65
2023/01/30 09:51:39;;;;;;;9.33;4.60;;;2.90;99.90;;;;;;10086454;28;20143;-68
2023/01/30 09:56:30;;;;;;;8.85;4.13;;;2.90;99.90;;;;;;10082691;28;20760;-66
2023/01/30 10:01:53;;;;;;;9.98;4.18;;;2.90;99.90;;;;;;10076847;28;20064;-66
2023/01/30 10:06:57;;;;;;;10.05;4.72;;;3.00;99.90;;;;;;10085270;28;20028;-68
2023/01/30 10:11:59;;;;;;;7.93;4.10;;;3.00;99.90;;;;;;10072933;28;20042;-67
2023/01/30 10:17:04;;;;;;;11.15;4.90;;;3.10;99.90;;;;;;10087174;28;20044;-68
2023/01/30 10:22:15;;;;;;;11.40;4.88;;;3.10;99.90;;;;;;10083508;28;20040;-67
2023/01/30 10:27:15;;;;;;;11.52;5.10;;;3.10;99.90;;;;;;10092069;28;20025;-67
2023/01/30 10:32:17;;;;;;;10.27;3.88;;;3.20;99.90;;;;;;10067230;28;20041;-66
2023/01/30 10:37:29;;;;;;;8.98;3.95;;;3.20;99.90;;;;;;10069459;28;20368;-68
2023/01/30 10:42:28;;;;;;;8.25;4.03;;;3.40;99.90;;;;;;10096552;28;20079;-66
2023/01/30 10:47:36;;;;;;;6.50;3.72;;;3.40;99.90;;;;;;10098072;28;20119;-67
2023/01/30 10:52:52;;;;;;;7.40;3.85;;;3.40;99.90;;;;;;10085937;28;20075;-68
2023/01/30 10:58:06;;;;;;;10.70;4.63;;;3.50;99.90;;;;;;10084817;28;20291;-68
2023/01/30 11:03:09;;;;;;;11.32;5.47;;;3.40;99.90;;;;;;10083923;28;20230;-67
2023/01/30 11:08:00;;;;;;;10.43;3.83;;;3.50;99.90;;;;;;10068336;28;20056;-69
2023/01/30 11:13:17;;;;;;;7.93;3.85;;;3.50;99.90;;;;;;10076186;28;20041;-70
2023/01/30 11:18:08;;;;;;;10.85;4.75;;;3.50;99.90;;;;;;10064976;28;20097;-67
2023/01/30 11:23:07;;;;;;;9.80;3.83;;;3.50;99.90;;;;;;10090471;28;20108;-69
2023/01/30 11:28:05;;;;;;;7.68;4.00;;;3.50;99.90;;;;;;10093824;28;20029;-69
2023/01/30 11:33:15;;;;;;;8.48;4.00;;;3.60;99.90;;;;;;10095873;28;20104;-70
2023/01/30 11:38:21;;;;;;;8.95;4.55;;;3.60;99.90;;;;;;10099729;28;20371;-65
2023/01/30 11:43:13;;;;;;;8.43;3.28;;;3.60;99.90;;;;;;10077363;28;20518;-69
2023/01/30 11:48:12;;;;;;;8.65;3.28;;;3.60;99.90;;;;;;10093803;28;20062;-67
2023/01/30 11:53:10;;;;;;;7.80;3.63;;;3.70;99.90;;;;;;10098018;28;20514;-66
2023/01/30 11:58:04;;;;;;;8.88;3.63;;;3.80;99.90;;;;;;10100902;28;20354;-67
2023/01/30 12:03:08;;;;;;;7.97;4.28;;;3.80;99.90;;;;;;10098027;28;20110;-67
2023/01/30 12:08:20;;;;;;;6.53;4.05;;;4.00;99.90;;;;;;10090337;28;20215;-67
2023/01/30 12:13:31;;;;;;;7.47;4.00;;;4.00;99.90;;;;;;10090909;28;20132;-67
2023/01/30 12:18:43;;;;;;;8.07;5.00;;;4.20;99.90;;;;;;10086116;28;20055;-64
2023/01/30 12:23:51;;;;;;;9.10;3.70;;;4.30;99.90;;;;;;10096798;28;20025;-67
2023/01/30 12:29:31;;;;;;;7.40;2.97;;;4.30;99.90;;;;;;10101559;28;20513;-65
2023/01/30 12:34:23;;;;;;;7.18;3.40;;;4.20;99.90;;;;;;10080600;28;20431;-65
2023/01/30 12:39:53;;;;;;;7.05;3.33;;;4.10;99.90;;;;;;10099559;28;20680;-66
2023/01/30 12:45:02;;;;;;;6.20;3.05;;;4.10;99.90;;;;;;10103713;28;20032;-68
2023/01/30 12:50:22;;;;;;;5.25;2.70;;;4.00;99.90;;;;;;10080223;28;20192;-66
2023/01/30 12:55:21;;;;;;;8.38;3.25;;;4.00;99.90;;;;;;10096548;28;20115;-65
2023/01/30 13:00:31;;;;;;;8.80;4.85;;;4.10;99.90;;;;;;10094984;28;20067;-64
2023/01/30 13:05:46;;;;;;;7.40;2.88;;;4.10;99.90;;;;;;10096197;28;20032;-63
2023/01/30 13:10:58;;;;;;;5.63;3.30;;;4.10;99.90;;;;;;10082080;28;20522;-64
2023/01/30 13:16:00;;;;;;;9.07;3.53;;;4.10;99.90;;;;;;10080217;28;20231;-65
2023/01/30 13:21:01;;;;;;;7.38;3.63;;;4.10;99.90;;;;;;10081550;28;20053;-62
2023/01/30 13:25:57;;;;;;;9.70;3.67;;;4.20;99.90;;;;;;10074442;28;20087;-64
2023/01/30 13:30:51;;;;;;;6.07;2.92;;;4.20;99.90;;;;;;10075406;28;20033;-62
2023/01/30 13:36:01;;;;;;;8.52;4.20;;;4.20;99.90;;;;;;10086756;28;20025;-64
2023/01/30 13:40:59;;;;;;;5.32;3.03;;;4.30;99.90;;;;;;10093803;28;20029;-65
2023/01/30 13:45:53;;;;;;;7.10;3.20;;;4.30;99.90;;;;;;10081624;28;20038;-64
2023/01/30 13:51:04;;;;;;;6.10;3.25;;;4.30;99.90;;;;;;10091986;28;20045;-64
2023/01/30 13:56:43;;;;;;;8.82;3.50;;;4.40;99.90;;;;;;10095350;28;20037;-65
2023/01/30 14:02:02;;;;;;;5.28;2.83;;;4.40;99.90;;;;;;9864668;29;20031;-63
2023/01/30 14:06:53;;;;;;;6.10;3.25;;;4.40;99.90;;;;;;10045459;28;20562;-66
2023/01/30 14:11:55;;;;;;;5.38;2.67;;;4.40;99.90;;;;;;10094128;28;20037;-64
2023/01/30 14:16:55;;;;;;;5.05;3.05;;;4.50;99.90;;;;;;10086735;28;20037;-64
2023/01/30 14:21:58;;;;;;;5.65;2.75;;;4.50;99.90;;;;;;10058825;28;20029;-63
2023/01/30 14:26:49;;;;;;;6.80;3.05;;;4.50;99.90;;;;;;10079589;28;20612;-65
2023/01/30 14:31:49;;;;;;;6.07;3.08;;;4.60;99.90;;;;;;10084160;28;20144;-65
2023/01/30 14:36:47;;;;;;;6.32;2.88;;;4.60;99.90;;;;;;10074498;28;20064;-66
2023/01/30 14:41:37;;;;;;;6.82;3.33;;;4.70;99.90;;;;;;10073017;28;20029;-65
2023/01/30 14:46:28;;;;;;;8.75;3.33;;;4.70;99.90;;;;;;10078900;28;20389;-68
2023/01/30 14:51:41;;;;;;;6.15;3.15;;;4.70;99.90;;;;;;10090605;28;20040;-62
2023/01/30 14:56:35;;;;;;;5.50;3.05;;;4.70;99.90;;;;;;10064762;28;20025;-66
2023/01/30 15:01:25;;;;;;;7.45;3.33;;;4.70;99.90;;;;;;10061617;28;20021;-63
2023/01/30 15:06:18;;;;;;;9.10;3.22;;;4.70;99.90;;;;;;10076544;28;20112;-65
2023/01/30 15:11:28;;;;;;;7.60;3.55;;;4.70;99.90;;;;;;10091533;28;20037;-60
2023/01/30 15:16:24;;;;;;;3.60;2.33;;;4.80;99.90;;;;;;10085474;28;20575;-61
2023/01/30 15:21:24;;;;;;;3.40;2.30;;;4.80;99.90;;;;;;10069780;28;20040;-62
2023/01/30 15:26:38;;;;;;;5.10;2.65;;;4.90;99.90;;;;;;10081819;28;20419;-61
2023/01/30 15:31:29;;;;;;;6.25;3.25;;;5.00;99.90;;;;;;10064144;28;20128;-64
2023/01/30 15:36:31;;;;;;;5.18;2.45;;;5.00;99.90;;;;;;10084543;28;20343;-63
2023/01/30 15:41:23;;;;;;;4.65;2.45;;;5.00;99.90;;;;;;10058692;28;20033;-61
2023/01/30 15:46:48;;;;;;;3.50;2.25;;;5.00;99.90;;;;;;10104284;28;20055;-61
2023/01/30 15:51:39;;;;;;;4.80;2.40;;;5.10;99.90;;;;;;10099621;28;20049;-64
2023/01/30 15:56:31;;;;;;;3.47;2.15;;;5.10;99.90;;;;;;10092246;28;20029;-63
2023/01/30 16:01:22;;;;;;;5.53;2.65;;;5.00;99.90;;;;;;10094544;28;20222;-66
2023/01/30 16:06:23;;;;;;;6.47;3.17;;;5.10;99.90;;;;;;10081993;28;20030;-64
2023/01/30 16:11:32;;;;;;;5.75;3.35;;;5.10;99.90;;;;;;10104660;28;20103;-64
2023/01/30 16:16:23;;;;;;;6.03;3.67;;;5.10;99.90;;;;;;10087095;28;20102;-64
2023/01/30 16:21:21;;;;;;;6.18;3.72;;;5.10;99.90;;;;;;10102777;28;20061;-70
2023/01/30 16:26:20;;;;;;;8.23;3.28;;;5.10;99.90;;;;;;10091293;28;20580;-65
2023/01/30 16:31:11;;;;;;;4.57;2.70;;;5.10;99.90;;;;;;10095620;28;20123;-66
2023/01/30 16:36:26;;;;;;;6.05;2.67;;;5.00;99.90;;;;;;10103595;28;20128;-64
2023/01/30 16:41:41;;;;;;;3.05;1.63;;;5.00;99.90;;;;;;10102788;28;20045;-66
2023/01/30 16:46:41;;;;;;;2.42;1.92;;;5.00;99.90;;;;;;10100876;28;20064;-63
2023/01/30 16:51:32;;;;;;;4.15;2.10;;;5.00;99.90;;;;;;10101665;28;20136;-62
2023/01/30 16:56:23;;;;;;;3.08;1.70;;;5.00;99.90;;;;;;10098933;28;20526;-64
2023/01/30 17:01:14;;;;;;;3.65;1.80;;;5.00;99.90;;;;;;10090414;28;20045;-62
2023/01/30 17:06:13;;;;;;;4.75;1.90;;;5.00;99.90;;;;;;10070915;28;20032;-62
2023/01/30 17:11:04;;;;;;;3.58;2.05;;;5.00;99.90;;;;;;10104980;28;20032;-61
2023/01/30 17:16:17;;;;;;;3.75;2.33;;;5.00;99.90;;;;;;10094770;28;20116;-67
2023/01/30 17:21:13;;;;;;;6.97;3.45;;;5.00;99.90;;;;;;10085352;28;20061;-70
2023/01/30 17:26:03;;;;;;;9.10;5.38;;;5.00;99.90;;;;;;10092501;28;20628;-64
2023/01/30 17:30:54;;;;;;;9.65;4.65;;;5.00;99.90;;;;;;10090030;28;20109;-67
2023/01/30 17:35:45;;;;;;;6.45;2.70;;;5.00;99.90;;;;;;10076125;28;20037;-65
2023/01/30 17:40:37;;;;;;;4.93;2.10;;;5.10;99.90;;;;;;10086654;28;20035;-63
2023/01/30 17:45:27;;;;;;;3.67;2.40;;;5.00;99.90;;;;;;10089205;28;20103;-65
2023/01/30 17:50:18;;;;;;;3.45;2.33;;;5.00;99.90;;;;;;10080841;28;20103;-63
2023/01/30 17:55:12;;;;;;;5.03;2.17;;;5.00;99.90;;;;;;10099950;28;20042;-64
2023/01/30 18:00:04;;;;;;;3.92;1.77;;;4.90;99.90;;;;;;10089431;28;20022;-61
2023/01/30 18:04:55;;;;;;;3.92;1.88;;;4.90;99.90;;;;;;10084778;28;20303;-62
2023/01/30 18:09:46;;;;;;;2.83;1.77;;;4.80;99.90;;;;;;10096058;28;20288;-69
2023/01/30 18:14:37;;;;;;;8.45;1.95;;;4.60;99.90;;;;;;10097121;28;20120;-66
2023/01/30 18:19:28;;;;;;;2.67;1.95;;;4.50;99.90;;;;;;10083485;28;20037;-67
2023/01/30 18:24:19;;;;;;;4.53;2.10;;;4.40;99.90;;;;;;10083463;28;20026;-67
2023/01/30 18:29:10;;;;;;;5.10;2.20;;;4.30;99.90;;;;;;10077942;28;20530;-70
2023/01/30 18:34:00;;;;;;;3.78;2.30;;;4.30;99.90;;;;;;10077292;28;20510;-66
2023/01/30 18:38:52;;;;;;;6.25;1.95;;;4.20;99.90;;;;;;10050197;28;20051;-67
2023/01/30 18:43:43;;;;;;;2.75;1.88;;;4.20;99.90;;;;;;10077042;28;20032;-65
2023/01/30 18:48:35;;;;;;;5.18;2.13;;;4.10;99.90;;;;;;10077522;28;20065;-66
2023/01/30 18:53:28;;;;;;;3.70;2.20;;;4.10;99.90;;;;;;10096391;28;20041;-66
2023/01/30 18:58:21;;;;;;;4.93;2.35;;;4.10;99.90;;;;;;10070669;28;20087;-65
2023/01/30 19:03:12;;;;;;;6.43;2.15;;;4.10;99.90;;;;;;10084438;28;20120;-68
2023/01/30 19:08:03;;;;;;;2.25;1.42;;;4.10;99.90;;;;;;10082014;28;20491;-64
2023/01/30 19:18:03;;;;;;;3.78;2.55;;;4.00;99.90;;;;;;10098860;28;20148;-62
2023/01/30 19:22:53;;;;;;;5.72;2.72;;;4.00;99.90;;;;;;10059698;28;20515;-63
2023/01/30 19:27:45;;;;;;;5.65;1.95;;;4.00;99.90;;;;;;10095143;28;20080;-63
2023/01/30 19:32:35;;;;;;;4.80;2.90;;;4.00;99.90;;;;;;10101635;28;20323;-64
2023/01/30 19:37:26;;;;;;;4.53;2.38;;;3.90;99.90;;;;;;10068452;28;20052;-62
2023/01/30 19:42:17;;;;;;;8.38;3.28;;;3.90;99.90;;;;;;10079638;28;20103;-74
2023/01/30 19:47:07;;;;;;;6.65;2.58;;;3.90;99.90;;;;;;10079686;28;20406;-64
2023/01/30 19:52:00;;;;;;;5.28;2.45;;;3.80;99.90;;;;;;10089416;28;20054;-67
2023/01/30 19:56:51;;;;;;;3.50;2.65;;;3.80;99.90;;;;;;10063218;28;20053;-65
2023/01/30 20:01:42;;;;;;;4.60;2.13;;;3.80;99.90;;;;;;10098966;28;20039;-64
2023/01/30 20:06:34;;;;;;;4.97;2.67;;;3.70;99.90;;;;;;10100959;28;20097;-63
2023/01/30 20:11:25;;;;;;;4.80;2.42;;;3.80;99.90;;;;;;10104676;28;20025;-66
2023/01/30 20:16:19;;;;;;;5.88;2.97;;;3.90;99.90;;;;;;10087128;28;20104;-65
2023/01/30 20:21:17;;;;;;;5.30;2.75;;;4.00;99.90;;;;;;10105596;28;20040;-64
2023/01/30 20:26:10;;;;;;;5.47;2.60;;;4.10;99.90;;;;;;10111758;28;20037;-68
2023/01/30 20:31:08;;;;;;;4.53;2.63;;;4.00;99.90;;;;;;10098902;28;20431;-65
2023/01/30 20:36:03;;;;;;;3.72;1.98;;;3.90;99.90;;;;;;10096128;28;20032;-75
2023/01/30 20:41:04;;;;;;;5.77;2.77;;;4.00;99.90;;;;;;10065830;28;20023;-68
2023/01/30 20:46:12;;;;;;;4.68;2.55;;;4.00;99.90;;;;;;10098692;28;20033;-69
2023/01/30 20:51:06;;;;;;;4.00;2.88;;;4.00;99.90;;;;;;10113247;28;20052;-70
2023/01/30 20:55:57;;;;;;;3.30;2.03;;;4.00;99.90;;;;;;10104269;28;20026;-71
2023/01/30 21:00:48;;;;;;;3.20;1.98;;;3.90;99.90;;;;;;10092372;28;20028;-65
2023/01/30 21:05:39;;;;;;;4.07;1.77;;;3.90;99.90;;;;;;10102311;28;20029;-64
2023/01/30 21:10:32;;;;;;;3.92;2.03;;;3.90;99.90;;;;;;10091892;28;20088;-64
2023/01/30 21:15:23;;;;;;;3.33;1.90;;;3.90;99.90;;;;;;10070045;28;20059;-64
2023/01/30 21:20:14;;;;;;;6.07;1.92;;;4.00;99.90;;;;;;10103349;28;20453;-72
2023/01/30 21:25:05;;;;;;;4.10;2.10;;;4.00;99.90;;;;;;10097338;28;20086;-70
2023/01/30 21:29:55;;;;;;;3.95;2.05;;;3.90;99.90;;;;;;10082213;28;20025;-71
2023/01/30 21:34:46;;;;;;;4.00;1.73;;;4.00;99.90;;;;;;10064366;28;20033;-67
2023/01/30 21:44:57;;;;;;;3.92;2.28;;;4.00;99.90;;;;;;10010247;28;20037;-67
2023/01/30 21:49:53;;;;;;;4.90;2.35;;;4.00;99.90;;;;;;10098507;28;20045;-69
2023/01/30 21:54:43;;;;;;;2.75;1.50;;;4.10;99.90;;;;;;10090390;28;20029;-69
2023/01/30 21:59:34;;;;;;;3.13;1.92;;;4.00;99.90;;;;;;10081006;28;20031;-68
2023/01/30 22:04:25;;;;;;;4.28;1.85;;;4.10;99.90;;;;;;10102401;28;20021;-65
2023/01/30 22:09:15;;;;;;;2.40;1.88;;;4.10;99.90;;;;;;10060820;28;20033;-66
2023/01/30 22:14:06;;;;;;;5.13;2.30;;;4.10;99.90;;;;;;10062455;28;20037;-64
2023/01/30 22:18:59;;;;;;;2.67;1.80;;;4.00;99.90;;;;;;10081610;28;20025;-63
2023/01/30 22:23:52;;;;;;;5.80;2.00;;;4.10;99.90;;;;;;10109688;28;20017;-64
2023/01/30 22:28:43;;;;;;;3.60;2.15;;;4.00;99.90;;;;;;10099174;28;20024;-66
2023/01/30 22:33:37;;;;;;;6.45;2.53;;;4.00;99.90;;;;;;10103264;28;20498;-69
2023/01/30 22:38:28;;;;;;;3.20;2.03;;;4.00;99.90;;;;;;10073074;28;20105;-72
2023/01/30 22:43:18;;;;;;;4.22;2.20;;;4.00;99.90;;;;;;10060158;28;20144;-70
2023/01/30 22:48:09;;;;;;;3.00;2.17;;;4.00;99.90;;;;;;10086708;28;20020;-71
2023/01/30 22:52:59;;;;;;;3.53;2.20;;;3.90;99.90;;;;;;10065889;28;20400;-69
2023/01/30 22:57:50;;;;;;;3.88;2.28;;;4.00;99.90;;;;;;10072651;28;20025;-66
2023/01/30 23:02:41;;;;;;;2.00;1.60;;;4.00;99.90;;;;;;10077110;28;20024;-69
2023/01/30 23:07:31;;;;;;;4.53;2.40;;;4.00;99.90;;;;;;10089384;28;20032;-72
2023/01/30 23:22:40;;;;;;;5.00;2.22;;;3.90;99.90;;;;;;10092061;28;20032;-68
2023/01/30 23:27:31;;;;;;;3.67;2.40;;;3.90;99.90;;;;;;10063122;28;20387;-69
2023/01/30 23:32:22;;;;;;;4.22;2.42;;;3.80;99.90;;;;;;10094215;28;20037;-64
2023/01/30 23:37:13;;;;;;;3.63;2.13;;;3.80;99.90;;;;;;10060501;28;20392;-67
2023/01/30 23:42:03;;;;;;;5.10;2.72;;;3.80;99.90;;;;;;10087829;28;20025;-65
2023/01/30 23:46:54;;;;;;;4.45;2.10;;;3.70;99.90;;;;;;10080865;28;20423;-69
2023/01/30 23:51:45;;;;;;;5.32;2.63;;;3.70;99.90;;;;;;10115625;28;20052;-64
2023/01/30 23:56:38;;;;;;;6.75;2.63;;;3.60;99.90;;;;;;10106187;28;20033;-68
